createdAt,value
2023-01-13T00:01:18.126Z,8.51
2023-01-13T00:03:45.581Z,8.51
2023-01-13T00:06:15.715Z,8.45
2023-01-13T00:08:43.318Z,8.54
2023-01-13T00:11:11.211Z,8.56
2023-01-13T00:13:39.079Z,8.54
2023-01-13T00:16:12.190Z,8.56
2023-01-13T00:18:39.945Z,8.57
2023-01-13T00:21:14.932Z,8.57
2023-01-13T00:23:42.971Z,8.56
2023-01-13T00:26:12.782Z,8.57
2023-01-13T00:28:40.254Z,8.56
2023-01-13T00:31:15.579Z,8.54
2023-01-13T00:33:43.143Z,8.56
2023-01-13T00:36:13.620Z,8.57
2023-01-13T00:38:43.007Z,8.59
2023-01-13T00:41:29.210Z,8.64
2023-01-13T00:43:56.407Z,8.66
2023-01-13T00:46:24.030Z,8.69
2023-01-13T00:48:51.729Z,8.69
2023-01-13T00:51:20.749Z,8.67
2023-01-13T00:53:51.850Z,8.70
2023-01-13T00:56:34.055Z,8.69
2023-01-13T00:59:06.150Z,8.70
2023-01-13T01:01:33.576Z,8.74
2023-01-13T01:04:01.066Z,8.75
2023-01-13T01:06:28.667Z,8.74
2023-01-13T01:08:56.642Z,8.73
2023-01-13T01:11:29.118Z,8.70
2023-01-13T01:13:58.163Z,8.68
2023-01-13T01:16:27.469Z,8.61
2023-01-13T01:18:55.395Z,8.57
2023-01-13T01:21:24.252Z,8.54
2023-01-13T01:23:51.574Z,8.49
2023-01-13T01:26:23.736Z,8.45
2023-01-13T01:28:51.484Z,8.44
2023-01-13T01:31:21.527Z,8.42
2023-01-13T01:33:49.571Z,8.42
2023-01-13T01:36:19.293Z,8.43
2023-01-13T01:38:47.511Z,8.44
2023-01-13T01:41:17.484Z,8.41
2023-01-13T01:43:59.891Z,8.43
2023-01-13T01:46:38.596Z,8.42
2023-01-13T01:49:11.231Z,8.46
2023-01-13T01:52:10.987Z,8.48
2023-01-13T01:54:48.753Z,8.52
2023-01-13T01:57:20.224Z,8.51
2023-01-13T01:59:47.496Z,8.51
2023-01-13T02:02:14.949Z,8.51
2023-01-13T02:04:51.177Z,8.52
2023-01-13T02:07:21.212Z,8.53
2023-01-13T02:09:49.063Z,8.54
2023-01-13T02:12:35.071Z,8.53
2023-01-13T02:15:06.326Z,8.53
2023-01-13T02:18:12.547Z,8.53
2023-01-13T02:20:58.558Z,8.56
2023-01-13T02:24:22.382Z,8.55
2023-01-13T02:27:13.496Z,8.55
2023-01-13T02:30:19.339Z,8.56
2023-01-13T02:33:04.144Z,8.57
2023-01-13T02:35:57.922Z,8.55
2023-01-13T02:38:40.686Z,8.56
2023-01-13T02:41:33.359Z,8.58
2023-01-13T02:44:09.219Z,8.63
2023-01-13T02:47:19.756Z,8.60
2023-01-13T02:49:50.919Z,8.63
2023-01-13T02:52:26.286Z,8.66
2023-01-13T02:54:55.925Z,8.63
2023-01-13T02:57:24.216Z,8.64
2023-01-13T02:59:54.318Z,8.65
2023-01-13T03:02:22.558Z,8.63
2023-01-13T03:04:58.051Z,8.63
2023-01-13T03:07:53.282Z,8.67
2023-01-13T03:10:32.862Z,8.62
2023-01-13T03:13:07.183Z,8.65
2023-01-13T03:15:46.605Z,8.64
2023-01-13T03:18:28.862Z,8.62
2023-01-13T03:21:15.783Z,8.59
2023-01-13T03:23:52.030Z,8.62
2023-01-13T03:26:30.743Z,8.59
2023-01-13T03:29:29.735Z,8.60
2023-01-13T03:31:59.927Z,8.60
2023-01-13T03:34:34.454Z,8.63
2023-01-13T03:37:04.100Z,8.59
2023-01-13T03:39:37.849Z,8.60
2023-01-13T03:42:11.934Z,8.58
2023-01-13T03:44:44.975Z,8.58
2023-01-13T03:47:15.182Z,8.61
2023-01-13T03:50:05.356Z,8.63
2023-01-13T03:52:38.298Z,8.60
2023-01-13T03:55:13.228Z,8.64
2023-01-13T03:57:56.917Z,8.63
2023-01-13T04:00:28.036Z,8.63
2023-01-13T04:03:00.047Z,8.64
2023-01-13T04:05:27.671Z,8.64
2023-01-13T04:08:01.873Z,8.63
2023-01-13T04:10:34.787Z,8.65
2023-01-13T04:13:05.202Z,8.66
2023-01-13T04:15:37.987Z,8.66
2023-01-13T04:18:31.546Z,8.69
2023-01-13T04:21:00.725Z,8.69
2023-01-13T04:23:28.668Z,8.67
2023-01-13T04:25:56.360Z,8.68
2023-01-13T04:28:23.539Z,8.67
2023-01-13T04:30:51.001Z,8.69
2023-01-13T04:33:19.213Z,8.68
2023-01-13T04:35:47.005Z,8.69
2023-01-13T04:38:15.789Z,8.67
2023-01-13T04:40:42.929Z,8.66
2023-01-13T04:43:11.249Z,8.69
2023-01-13T04:45:38.400Z,8.69
2023-01-13T04:48:05.590Z,8.65
2023-01-13T04:50:32.938Z,8.67
2023-01-13T04:53:01.249Z,8.68
2023-01-13T04:55:28.366Z,8.65
2023-01-13T04:57:55.502Z,8.67
2023-01-13T05:00:24.140Z,8.64
2023-01-13T05:02:51.448Z,8.62
2023-01-13T05:05:18.583Z,8.59
2023-01-13T05:07:45.928Z,8.62
2023-01-13T05:10:13.374Z,8.61
2023-01-13T05:12:59.603Z,8.59
2023-01-13T05:15:45.861Z,8.63
2023-01-13T05:18:13.201Z,8.57
2023-01-13T05:20:40.223Z,8.57
2023-01-13T05:23:25.741Z,8.59
2023-01-13T05:25:52.940Z,8.60
2023-01-13T05:28:20.055Z,8.64
2023-01-13T05:30:49.296Z,8.65
2023-01-13T05:33:18.610Z,8.64
2023-01-13T05:35:46.745Z,8.68
2023-01-13T05:38:14.551Z,8.70
2023-01-13T05:41:00.741Z,8.68
2023-01-13T05:43:28.250Z,8.68
2023-01-13T05:45:58.213Z,8.68
2023-01-13T05:48:31.531Z,8.66
2023-01-13T05:50:59.034Z,8.67
2023-01-13T05:53:26.066Z,8.67
2023-01-13T05:55:53.413Z,8.64
2023-01-13T05:58:22.167Z,8.66
2023-01-13T06:00:49.814Z,8.66
2023-01-13T06:03:19.739Z,8.66
2023-01-13T06:05:47.873Z,8.67
2023-01-13T06:08:14.952Z,8.69
2023-01-13T06:10:41.992Z,8.65
2023-01-13T06:13:09.124Z,8.69
2023-01-13T06:15:36.413Z,8.69
2023-01-13T06:18:04.789Z,8.67
2023-01-13T06:20:32.309Z,8.71
2023-01-13T06:23:00.167Z,8.73
2023-01-13T06:25:56.732Z,8.73
2023-01-13T06:28:24.103Z,8.77
2023-01-13T06:30:56.498Z,8.76
2023-01-13T06:33:28.287Z,8.78
2023-01-13T06:35:59.009Z,8.76
2023-01-13T06:38:27.837Z,8.77
2023-01-13T06:40:54.879Z,8.72
2023-01-13T06:43:22.124Z,8.74
2023-01-13T06:45:52.845Z,8.75
2023-01-13T06:48:22.098Z,8.71
2023-01-13T06:50:49.303Z,8.69
2023-01-13T06:53:16.344Z,8.72
2023-01-13T06:55:43.409Z,8.70
2023-01-13T06:58:10.709Z,8.72
2023-01-13T07:00:38.122Z,8.72
2023-01-13T07:03:07.152Z,8.75
2023-01-13T07:05:34.391Z,8.77
2023-01-13T07:08:01.655Z,8.79
2023-01-13T07:10:29.239Z,8.79
2023-01-13T07:13:14.920Z,8.75
2023-01-13T07:15:42.086Z,8.74
2023-01-13T07:18:09.171Z,8.78
2023-01-13T07:20:36.219Z,8.79
2023-01-13T07:23:03.498Z,8.81
2023-01-13T07:25:32.437Z,8.82
2023-01-13T07:27:59.617Z,8.79
2023-01-13T07:30:26.724Z,8.79
2023-01-13T07:32:53.924Z,8.81
2023-01-13T07:35:23.801Z,8.82
2023-01-13T07:37:50.974Z,8.80
2023-01-13T07:40:18.205Z,8.79
2023-01-13T07:43:04.243Z,8.81
2023-01-13T07:45:31.354Z,8.80
2023-01-13T07:47:58.640Z,8.81
2023-01-13T07:50:25.987Z,8.76
2023-01-13T07:52:53.183Z,8.74
2023-01-13T07:55:20.259Z,8.68
2023-01-13T07:57:48.251Z,8.65
2023-01-13T08:00:15.889Z,8.66
2023-01-13T08:02:42.945Z,8.71
2023-01-13T08:05:10.027Z,8.67
2023-01-13T08:07:37.241Z,8.71
2023-01-13T08:10:04.618Z,8.73
2023-01-13T08:12:53.302Z,8.72
2023-01-13T08:15:24.208Z,8.72
2023-01-13T08:17:51.292Z,8.72
2023-01-13T08:20:19.166Z,8.69
2023-01-13T08:22:46.221Z,8.76
2023-01-13T08:25:13.285Z,8.79
2023-01-13T08:27:40.520Z,8.79
2023-01-13T08:30:08.288Z,8.76
2023-01-13T08:32:35.545Z,8.79
2023-01-13T08:35:02.580Z,8.82
2023-01-13T08:37:29.649Z,8.84
2023-01-13T08:39:56.831Z,8.83
2023-01-13T08:42:24.528Z,8.85
2023-01-13T08:44:52.884Z,8.88
2023-01-13T08:47:20.103Z,8.87
2023-01-13T08:49:47.157Z,8.84
2023-01-13T08:52:14.952Z,8.71
2023-01-13T08:54:42.141Z,8.22
2023-01-13T08:57:09.340Z,7.87
2023-01-13T08:59:36.547Z,7.65
2023-01-13T09:02:04.369Z,7.48
2023-01-13T09:04:31.557Z,7.38
2023-01-13T09:06:58.747Z,7.31
2023-01-13T09:09:27.676Z,7.18
2023-01-13T09:12:13.489Z,7.11
2023-01-13T09:14:40.970Z,6.97
2023-01-13T09:17:08.086Z,6.82
2023-01-13T09:19:35.246Z,6.71
2023-01-13T09:22:02.753Z,6.57
2023-01-13T09:24:30.015Z,6.49
2023-01-13T09:26:57.554Z,6.44
2023-01-13T09:29:24.732Z,6.40
2023-01-13T09:31:51.893Z,6.31
2023-01-13T09:34:38.580Z,6.23
2023-01-13T09:37:06.920Z,6.18
2023-01-13T09:39:35.284Z,6.15
2023-01-13T09:43:01.981Z,6.07
2023-01-13T09:45:32.579Z,6.07
2023-01-13T09:48:08.303Z,6.09
2023-01-13T09:50:41.405Z,6.01
2023-01-13T09:53:13.748Z,6.02
2023-01-13T09:55:40.808Z,6.02
2023-01-13T09:58:13.901Z,5.99
2023-01-13T10:01:02.493Z,6.02
2023-01-13T10:03:31.545Z,6.02
2023-01-13T10:06:06.758Z,6.02
2023-01-13T10:08:37.801Z,5.99
2023-01-13T10:11:41.238Z,5.96
2023-01-13T10:14:24.877Z,5.98
2023-01-13T10:17:06.451Z,5.96
2023-01-13T10:19:44.505Z,5.99
2023-01-13T10:22:36.820Z,6.03
2023-01-13T10:25:14.746Z,6.05
2023-01-13T10:27:43.099Z,6.06
2023-01-13T10:30:19.674Z,6.14
2023-01-13T10:32:54.105Z,6.21
2023-01-13T10:35:53.809Z,6.30
2023-01-13T10:38:26.996Z,6.33
2023-01-13T10:40:57.004Z,6.31
2023-01-13T10:43:25.125Z,6.31
2023-01-13T10:45:59.097Z,6.32
2023-01-13T10:48:37.666Z,6.35
2023-01-13T10:51:24.021Z,6.38
2023-01-13T10:53:56.835Z,6.44
2023-01-13T10:56:27.382Z,6.49
2023-01-13T10:59:10.023Z,6.56
2023-01-13T11:01:37.642Z,6.61
2023-01-13T11:04:24.733Z,6.64
2023-01-13T11:06:51.956Z,6.66
2023-01-13T11:09:21.167Z,6.70
2023-01-13T11:11:55.263Z,6.70
2023-01-13T11:14:36.764Z,6.72
2023-01-13T11:17:09.808Z,6.75
2023-01-13T11:19:42.337Z,6.75
2023-01-13T11:22:17.358Z,6.75
2023-01-13T11:24:57.210Z,6.74
2023-01-13T11:27:43.827Z,6.72
2023-01-13T11:30:19.865Z,6.68
2023-01-13T11:33:14.873Z,6.66
2023-01-13T11:36:12.352Z,6.67
2023-01-13T11:38:45.954Z,6.67
2023-01-13T11:41:35.859Z,6.68
2023-01-13T11:44:16.242Z,6.71
2023-01-13T11:46:43.473Z,6.75
2023-01-13T11:49:22.280Z,6.80
2023-01-13T11:52:04.864Z,6.89
2023-01-13T11:54:53.496Z,7.11
2023-01-13T11:57:53.351Z,7.28
2023-01-13T12:00:48.542Z,7.28
2023-01-13T12:03:31.409Z,7.26
2023-01-13T12:06:28.456Z,7.24
2023-01-13T12:08:58.478Z,7.15
2023-01-13T12:12:09.642Z,7.10
2023-01-13T12:14:39.624Z,7.01
2023-01-13T12:17:15.821Z,6.99
2023-01-13T12:19:44.878Z,7.00
2023-01-13T12:22:26.763Z,6.99
2023-01-13T12:25:13.903Z,7.06
2023-01-13T12:27:47.223Z,7.24
2023-01-13T12:30:23.969Z,7.39
2023-01-13T12:32:53.652Z,7.51
2023-01-13T12:35:40.007Z,7.53
2023-01-13T12:38:29.343Z,7.49
2023-01-13T12:41:06.997Z,7.49
2023-01-13T12:43:52.974Z,7.46
2023-01-13T12:46:22.651Z,7.48
2023-01-13T12:48:56.892Z,7.53
2023-01-13T12:51:36.646Z,7.57
2023-01-13T12:54:42.375Z,7.66
2023-01-13T12:57:24.794Z,7.72
2023-01-13T13:00:00.768Z,7.73
2023-01-13T13:02:30.102Z,7.76
2023-01-13T13:04:59.891Z,7.80
2023-01-13T13:07:29.910Z,7.83
2023-01-13T13:10:03.358Z,7.80
2023-01-13T13:12:49.133Z,7.77
2023-01-13T13:15:20.827Z,7.77
2023-01-13T13:17:59.896Z,7.76
2023-01-13T13:21:09.099Z,7.73
2023-01-13T13:23:57.871Z,7.71
2023-01-13T13:26:45.726Z,7.62
2023-01-13T13:29:28.709Z,7.62
2023-01-13T13:32:18.495Z,7.60
2023-01-13T13:35:00.853Z,7.56
2023-01-13T13:37:55.687Z,7.59
2023-01-13T13:40:43.028Z,7.61
2023-01-13T13:43:31.873Z,7.64
2023-01-13T13:46:17.584Z,7.63
2023-01-13T13:48:54.631Z,7.58
2023-01-13T13:51:28.274Z,7.58
2023-01-13T13:53:55.916Z,7.60
2023-01-13T13:56:27.476Z,7.64
2023-01-13T13:58:55.247Z,7.64
2023-01-13T14:01:25.394Z,7.67
2023-01-13T14:04:25.670Z,7.69
2023-01-13T14:07:06.572Z,7.68
2023-01-13T14:09:46.447Z,7.69
2023-01-13T14:12:27.156Z,7.69
2023-01-13T14:14:57.543Z,7.64
2023-01-13T14:17:27.089Z,7.61
2023-01-13T14:20:02.389Z,7.53
2023-01-13T14:22:29.462Z,7.51
2023-01-13T14:24:57.955Z,7.48
2023-01-13T14:27:27.733Z,7.47
2023-01-13T14:30:00.485Z,7.45
2023-01-13T14:32:36.392Z,7.42
2023-01-13T14:35:07.578Z,7.41
2023-01-13T14:37:40.251Z,7.45
2023-01-13T14:40:33.090Z,7.45
2023-01-13T14:43:00.725Z,7.44
2023-01-13T14:45:27.823Z,7.44
2023-01-13T14:47:54.862Z,7.40
2023-01-13T14:50:28.166Z,7.39
2023-01-13T14:52:57.039Z,7.37
2023-01-13T14:55:31.827Z,7.30
2023-01-13T14:58:23.658Z,7.24
2023-01-13T15:00:52.487Z,7.20
2023-01-13T15:03:21.231Z,7.17
2023-01-13T15:05:50.622Z,7.15
2023-01-13T15:08:34.853Z,7.12
2023-01-13T15:11:04.198Z,7.11
2023-01-13T15:13:52.938Z,7.07
2023-01-13T15:16:25.604Z,7.06
2023-01-13T15:18:54.520Z,7.04
2023-01-13T15:21:23.013Z,7.00
2023-01-13T15:23:50.169Z,7.04
2023-01-13T15:26:21.569Z,7.02
2023-01-13T15:28:49.120Z,7.03
2023-01-13T15:31:16.525Z,7.02
2023-01-13T15:33:43.783Z,7.00
2023-01-13T15:36:31.161Z,6.96
2023-01-13T15:38:58.933Z,6.91
2023-01-13T15:41:44.611Z,6.86
2023-01-13T15:44:51.156Z,6.81
2023-01-13T15:47:18.354Z,6.77
2023-01-13T15:49:46.119Z,6.74
2023-01-13T15:52:24.245Z,6.73
2023-01-13T15:54:51.935Z,6.68
2023-01-13T15:57:23.485Z,6.59
2023-01-13T15:59:52.193Z,6.56
2023-01-13T16:02:19.398Z,6.48
2023-01-13T16:04:46.447Z,6.41
2023-01-13T16:07:18.126Z,6.32
2023-01-13T16:09:45.452Z,6.23
2023-01-13T16:12:13.387Z,6.21
2023-01-13T16:14:40.442Z,6.14
2023-01-13T16:17:16.233Z,6.09
2023-01-13T16:19:44.295Z,6.04
2023-01-13T16:22:14.169Z,5.94
2023-01-13T16:24:42.001Z,5.83
2023-01-13T16:27:23.578Z,5.79
2023-01-13T16:29:51.976Z,5.73
2023-01-13T16:32:20.929Z,5.63
2023-01-13T16:34:48.516Z,5.58
2023-01-13T16:37:25.368Z,5.56
2023-01-13T16:39:53.990Z,5.50
2023-01-13T16:42:21.530Z,5.50
2023-01-13T16:44:49.628Z,5.50
2023-01-13T16:47:17.755Z,5.48
2023-01-13T16:49:45.572Z,5.43
2023-01-13T16:52:12.622Z,5.38
2023-01-13T16:54:39.792Z,5.34
2023-01-13T16:57:07.760Z,5.35
2023-01-13T16:59:36.228Z,5.27
2023-01-13T17:02:04.730Z,5.25
2023-01-13T17:04:33.195Z,5.24
2023-01-13T17:07:06.484Z,5.24
2023-01-13T17:09:33.892Z,5.20
2023-01-13T17:12:00.937Z,5.18
2023-01-13T17:14:28.028Z,5.22
2023-01-13T17:16:57.156Z,5.26
2023-01-13T17:19:24.600Z,5.24
2023-01-13T17:21:51.606Z,5.26
2023-01-13T17:24:18.663Z,5.28
2023-01-13T17:26:50.795Z,5.29
2023-01-13T17:29:22.078Z,5.28
2023-01-13T17:31:50.199Z,5.32
2023-01-13T17:34:17.805Z,5.30
2023-01-13T17:36:45.014Z,5.32
2023-01-13T17:39:16.712Z,5.36
2023-01-13T17:41:44.402Z,5.38
2023-01-13T17:44:15.472Z,5.40
2023-01-13T17:46:43.320Z,5.46
2023-01-13T17:49:11.762Z,5.54
2023-01-13T17:51:38.915Z,5.60
2023-01-13T17:54:06.063Z,5.68
2023-01-13T17:56:33.208Z,5.77
2023-01-13T17:59:00.240Z,5.81
2023-01-13T18:01:30.796Z,5.85
2023-01-13T18:03:57.981Z,5.89
2023-01-13T18:06:25.379Z,5.92
2023-01-13T18:08:52.946Z,5.94
2023-01-13T18:11:21.750Z,5.94
2023-01-13T18:13:50.303Z,5.97
2023-01-13T18:16:19.347Z,5.99
2023-01-13T18:18:48.469Z,5.99
2023-01-13T18:21:43.379Z,6.00
2023-01-13T18:24:34.400Z,5.98
2023-01-13T18:27:22.542Z,5.97
2023-01-13T18:29:54.538Z,5.98
2023-01-13T18:32:23.452Z,5.98
2023-01-13T18:35:01.597Z,5.93
2023-01-13T18:37:35.852Z,5.97
2023-01-13T18:40:04.810Z,5.95
2023-01-13T18:42:50.413Z,5.97
2023-01-13T18:45:29.288Z,5.95
2023-01-13T18:47:59.174Z,5.94
2023-01-13T18:50:28.255Z,5.93
2023-01-13T18:52:55.640Z,5.92
2023-01-13T18:55:23.417Z,5.92
2023-01-13T18:57:51.159Z,5.91
2023-01-13T19:00:20.337Z,5.90
2023-01-13T19:02:48.143Z,5.90
2023-01-13T19:05:15.224Z,5.88
2023-01-13T19:07:46.233Z,5.86
2023-01-13T19:10:13.365Z,5.85
2023-01-13T19:12:40.438Z,5.82
2023-01-13T19:15:08.084Z,5.83
2023-01-13T19:17:35.783Z,5.81
2023-01-13T19:20:04.886Z,5.82
2023-01-13T19:22:35.554Z,5.80
2023-01-13T19:25:03.540Z,5.75
2023-01-13T19:27:31.533Z,5.75
2023-01-13T19:30:00.439Z,5.72
2023-01-13T19:32:27.964Z,5.74
2023-01-13T19:34:59.046Z,5.71
2023-01-13T19:37:31.413Z,5.69
2023-01-13T19:39:59.316Z,5.71
2023-01-13T19:42:45.433Z,5.69
2023-01-13T19:45:29.174Z,5.69
2023-01-13T19:47:57.594Z,5.72
2023-01-13T19:50:24.726Z,5.75
2023-01-13T19:52:51.790Z,5.74
2023-01-13T19:55:19.726Z,5.73
2023-01-13T19:57:47.075Z,5.72
2023-01-13T20:00:18.355Z,5.73
2023-01-13T20:02:49.130Z,5.74
2023-01-13T20:05:21.133Z,5.74
2023-01-13T20:07:50.198Z,5.78
2023-01-13T20:10:18.697Z,5.79
2023-01-13T20:12:45.779Z,5.78
2023-01-13T20:15:12.876Z,5.81
2023-01-13T20:17:41.328Z,5.82
2023-01-13T20:20:11.687Z,5.86
2023-01-13T20:22:42.090Z,5.83
2023-01-13T20:25:09.368Z,5.81
2023-01-13T20:27:36.813Z,5.86
2023-01-13T20:30:05.307Z,5.88
2023-01-13T20:32:32.349Z,5.87
2023-01-13T20:34:59.488Z,5.88
2023-01-13T20:37:26.687Z,5.91
2023-01-13T20:39:55.195Z,5.86
2023-01-13T20:42:41.171Z,5.90
2023-01-13T20:45:08.727Z,5.89
2023-01-13T20:47:35.776Z,5.88
2023-01-13T20:50:02.897Z,5.86
2023-01-13T20:52:29.999Z,5.87
2023-01-13T20:54:57.194Z,5.84
2023-01-13T20:57:24.239Z,5.85
2023-01-13T20:59:51.314Z,5.86
2023-01-13T21:02:19.325Z,5.86
2023-01-13T21:04:46.414Z,5.84
2023-01-13T21:07:13.611Z,5.85
2023-01-13T21:09:40.639Z,5.87
2023-01-13T21:12:26.419Z,5.88
2023-01-13T21:15:12.098Z,5.86
2023-01-13T21:17:57.655Z,5.83
2023-01-13T21:20:24.701Z,5.84
2023-01-13T21:22:51.861Z,5.88
2023-01-13T21:25:19.031Z,5.87
2023-01-13T21:27:46.165Z,5.86
2023-01-13T21:30:15.356Z,5.89
2023-01-13T21:32:44.471Z,5.89
2023-01-13T21:35:12.623Z,5.90
2023-01-13T21:37:41.275Z,5.94
2023-01-13T21:40:12.226Z,5.95
2023-01-13T21:42:57.950Z,5.94
2023-01-13T21:45:43.707Z,5.97
2023-01-13T21:48:10.794Z,5.94
2023-01-13T21:50:38.467Z,5.95
2023-01-13T21:53:07.804Z,5.97
2023-01-13T21:55:36.668Z,5.97
2023-01-13T21:58:12.217Z,5.96
2023-01-13T22:00:40.782Z,5.91
2023-01-13T22:03:08.942Z,5.87
2023-01-13T22:05:36.394Z,5.77
2023-01-13T22:08:04.134Z,5.70
2023-01-13T22:10:31.591Z,5.63
2023-01-13T22:13:20.552Z,5.61
2023-01-13T22:15:47.896Z,5.57
2023-01-13T22:18:15.255Z,5.59
2023-01-13T22:20:42.347Z,5.57
2023-01-13T22:23:09.376Z,5.57
2023-01-13T22:25:36.381Z,5.53
2023-01-13T22:28:05.953Z,5.54
2023-01-13T22:30:33.265Z,5.54
2023-01-13T22:33:00.593Z,5.55
2023-01-13T22:35:27.671Z,5.56
2023-01-13T22:37:54.732Z,5.59
2023-01-13T22:40:21.752Z,5.61
2023-01-13T22:42:48.934Z,5.68
2023-01-13T22:45:16.188Z,5.71
2023-01-13T22:47:43.206Z,5.74
2023-01-13T22:50:12.475Z,5.73
2023-01-13T22:52:39.870Z,5.75
2023-01-13T22:55:07.388Z,5.79
2023-01-13T22:57:46.763Z,5.83
2023-01-13T23:00:15.496Z,5.82
2023-01-13T23:02:42.570Z,5.83
2023-01-13T23:05:09.809Z,5.83
2023-01-13T23:07:36.835Z,5.82
2023-01-13T23:10:04.485Z,5.84
2023-01-13T23:12:31.566Z,5.84
2023-01-13T23:14:58.617Z,5.84
2023-01-13T23:17:25.781Z,5.86
2023-01-13T23:19:52.816Z,5.86
2023-01-13T23:22:19.904Z,5.88
2023-01-13T23:24:46.960Z,5.86
2023-01-13T23:27:14.039Z,5.84
2023-01-13T23:29:41.115Z,5.83
2023-01-13T23:32:08.215Z,5.86
2023-01-13T23:34:35.248Z,5.84
2023-01-13T23:37:06.204Z,5.84
2023-01-13T23:39:33.239Z,5.88
2023-01-13T23:42:00.320Z,5.86
2023-01-13T23:44:27.372Z,5.86
2023-01-13T23:46:54.459Z,5.83
2023-01-13T23:49:21.525Z,5.84
2023-01-13T23:51:52.289Z,5.85
2023-01-13T23:54:19.964Z,5.83
2023-01-13T23:56:49.300Z,5.76
2023-01-13T23:59:16.329Z,5.73
